Estrella — DJ7286 — position and weather

sailwx.info

Track history (hours):
 
Tides and Currents Weather Stations Pressure Air Temp Water Temp Dewpoint Dewpoint Depression Visibility Wind Speed Wind Dir Waves Ship Positions

Estrella

Last reported at 2017-Nov-19 16:30 UTC. Time now 2017-Nov-21 13:49 UTC.
Position N 27°54' W 015°20'.

Length 15 m.

Type: Sailing vessel. MMSI: 211676770.

Date/timePositionNaut miles runAvg speedWind from/ knotsBaromVisibWave heightAir tempDewpointWater temp
2017-Nov-19 16:30N 27°54' W 015°20'3 5.2
2017-Nov-19 16:00N 27°57' W 015°20'2 4.6
2017-Nov-19 15:30N 27°59' W 015°20'2 4.1
2017-Nov-19 15:00N 28°01' W 015°21'2 3.7
2017-Nov-19 14:30N 28°03' W 015°22'2 3.5
2017-Nov-19 14:00N 28°04' W 015°22'2 3.5
2017-Nov-19 13:30N 28°06' W 015°23'1 3.0
2017-Nov-19 13:00N 28°07' W 015°24'0 0.6
2017-Nov-19 12:30N 28°07' W 015°24'1 2.3
2017-Nov-19 11:54N 28°08' W 015°26'0 0.0
2017-Nov-19 11:24N 28°08' W 015°26'0 0.0
2017-Nov-19 10:57N 28°08' W 015°26'0 0.0
2017-Nov-19 10:24N 28°08' W 015°26'0 0.0
2017-Nov-19 09:54N 28°08' W 015°26'0 0.0
2017-Nov-18 18:33N 28°08' W 015°26'0 0.0
2017-Nov-18 18:18N 28°08' W 015°26'0 0.0
2017-Nov-18 17:48N 28°08' W 015°26'0 0.0
2017-Nov-18 17:30N 28°08' W 015°26'0 0.0
2017-Nov-17 11:56N 28°08' W 015°26'  
2017-Nov-10 18:37N 28°08' W 015°26'0 0.0
2017-Nov-10 18:24N 28°08' W 015°26'0 0.0
2017-Nov-10 17:51N 28°08' W 015°26'0 0.2
2017-Nov-10 17:28N 28°08' W 015°25'2 4.8
2017-Nov-10 16:59N 28°07' W 015°23'3 4.9
2017-Nov-10 16:28N 28°08' W 015°20'3 5.8
2017-Nov-10 16:00N 28°08' W 015°17'3 6.4
2017-Nov-10 15:30N 28°07' W 015°13'3 6.8
2017-Nov-10 15:00N 28°07' W 015°10'3 6.9
2017-Nov-10 14:31N 28°06' W 015°06'4 6.8
2017-Nov-10 14:00N 28°06' W 015°02'3 6.7
2017-Nov-10 13:30N 28°05' W 014°58'4 6.9
2017-Nov-10 12:59N 28°05' W 014°54'1 2.2
2017-Nov-10 12:30N 28°05' W 014°53'5 6.9
2017-Nov-10 11:49N 28°04' W 014°48'  
Track history (hours):
 
Tides and Currents Weather Stations Pressure Air Temp Water Temp Dewpoint Dewpoint Depression Visibility Wind Speed Wind Dir Waves Ship Positions

Estrella

Last reported at 2017-Nov-19 16:30 UTC. Time now 2017-Nov-21 13:49 UTC.
Position N 27°54' W 015°20'.

Length 15 m.

Type: Sailing vessel. MMSI: 211676770.

Date/timePositionNaut miles runAvg speedWind from/ knotsBaromVisibWave heightAir tempDewpointWater temp
2017-Nov-19 16:30N 27°54' W 015°20'3 5.2
2017-Nov-19 16:00N 27°57' W 015°20'2 4.6
2017-Nov-19 15:30N 27°59' W 015°20'2 4.1
2017-Nov-19 15:00N 28°01' W 015°21'2 3.7
2017-Nov-19 14:30N 28°03' W 015°22'2 3.5
2017-Nov-19 14:00N 28°04' W 015°22'2 3.5
2017-Nov-19 13:30N 28°06' W 015°23'1 3.0
2017-Nov-19 13:00N 28°07' W 015°24'0 0.6
2017-Nov-19 12:30N 28°07' W 015°24'1 2.3
2017-Nov-19 11:54N 28°08' W 015°26'0 0.0
2017-Nov-19 11:24N 28°08' W 015°26'0 0.0
2017-Nov-19 10:57N 28°08' W 015°26'0 0.0
2017-Nov-19 10:24N 28°08' W 015°26'0 0.0
2017-Nov-19 09:54N 28°08' W 015°26'0 0.0
2017-Nov-18 18:33N 28°08' W 015°26'0 0.0
2017-Nov-18 18:18N 28°08' W 015°26'0 0.0
2017-Nov-18 17:48N 28°08' W 015°26'0 0.0
2017-Nov-18 17:30N 28°08' W 015°26'0 0.0
2017-Nov-17 11:56N 28°08' W 015°26'  
2017-Nov-10 18:37N 28°08' W 015°26'0 0.0
2017-Nov-10 18:24N 28°08' W 015°26'0 0.0
2017-Nov-10 17:51N 28°08' W 015°26'0 0.2
2017-Nov-10 17:28N 28°08' W 015°25'2 4.8
2017-Nov-10 16:59N 28°07' W 015°23'3 4.9
2017-Nov-10 16:28N 28°08' W 015°20'3 5.8
2017-Nov-10 16:00N 28°08' W 015°17'3 6.4
2017-Nov-10 15:30N 28°07' W 015°13'3 6.8
2017-Nov-10 15:00N 28°07' W 015°10'3 6.9
2017-Nov-10 14:31N 28°06' W 015°06'4 6.8
2017-Nov-10 14:00N 28°06' W 015°02'3 6.7
2017-Nov-10 13:30N 28°05' W 014°58'4 6.9
2017-Nov-10 12:59N 28°05' W 014°54'1 2.2
2017-Nov-10 12:30N 28°05' W 014°53'5 6.9
2017-Nov-10 11:49N 28°04' W 014°48'  

Dump ship's entire track history